Griffiss International Airport Rome US
ICAO: KRME
IATA: RME
Category: Medium
Scheduled Services: No

Elevation: 504 ft
TransAlt. 18000 ft.

Airport Communications:
APP/DEP:120.925
CTAF:125.6
UNICOM:122.7

KRME Zoom In..

If you have problems with the map follow the link
https://www.worldairports.se/pages/airport.php?
ICAO=KRME

Runways:

(A) RW 15 length 11820 ft width 200 ft
ILS 109.10 / hdg 147

(B) RW 33 length 11820 ft width 200 ft
ILS 110.10 / hdg 327

Location; KRME
Day. 19 / Time. 18.03 Zulu
* Altimeter: 29.79
* Temperature: -04° c. -24.8°f.
* Wind from: 280° Speed 16 kn with Gusts up to 24 kn.
Dewpoint: -07° c.
Visibility: 9 Statute Miles.
Clouds: Few 1900 ft.
Clouds: Scattered 2400 ft.
Clouds: Overcast 6000 ft.

KRME 191803Z 28016G24KT 9SM FEW019 SCT024 OVC060 M04/M07 A2979 RMK AO2 T10391067


Wind From 280°
Speed 16 kn.

 
 
jpsmedia worldairports.se 2020   terms of use